createdAt,value
2023-04-30T00:01:46.216Z,12.62
2023-04-30T00:04:13.982Z,12.61
2023-04-30T00:06:41.814Z,12.60
2023-04-30T00:09:09.572Z,12.59
2023-04-30T00:11:37.385Z,12.58
2023-04-30T00:14:06.625Z,12.56
2023-04-30T00:16:34.483Z,12.54
2023-04-30T00:19:02.280Z,12.51
2023-04-30T00:21:30.275Z,12.51
2023-04-30T00:24:00.329Z,12.51
2023-04-30T00:26:28.113Z,12.50
2023-04-30T00:28:55.763Z,12.48
2023-04-30T00:31:24.852Z,12.47
2023-04-30T00:33:52.817Z,12.45
2023-04-30T00:36:20.507Z,12.35
2023-04-30T00:38:48.205Z,12.45
2023-04-30T00:41:16.126Z,12.43
2023-04-30T00:43:44.084Z,12.44
2023-04-30T00:46:11.822Z,12.43
2023-04-30T00:48:41.150Z,12.43
2023-04-30T00:51:09.425Z,12.40
2023-04-30T00:53:38.541Z,12.41
2023-04-30T00:56:07.367Z,12.39
2023-04-30T00:58:35.272Z,12.39
2023-04-30T01:01:04.573Z,12.38
2023-04-30T01:03:32.422Z,12.36
2023-04-30T01:06:01.655Z,12.35
2023-04-30T01:08:29.441Z,12.35
2023-04-30T01:11:09.309Z,12.35
2023-04-30T01:13:45.591Z,12.33
2023-04-30T01:16:20.842Z,12.31
2023-04-30T01:18:53.499Z,12.31
2023-04-30T01:21:23.360Z,12.31
2023-04-30T01:24:16.450Z,12.28
2023-04-30T01:27:00.483Z,12.27
2023-04-30T01:29:31.137Z,12.25
2023-04-30T01:31:58.840Z,12.24
2023-04-30T01:34:26.711Z,12.22
2023-04-30T01:37:07.267Z,12.21
2023-04-30T01:39:49.664Z,12.21
2023-04-30T01:42:22.941Z,12.19
2023-04-30T01:45:03.042Z,12.17
2023-04-30T01:47:40.139Z,12.17
2023-04-30T01:50:21.725Z,12.16
2023-04-30T01:52:53.801Z,12.16
2023-04-30T01:55:25.342Z,12.15
2023-04-30T01:57:58.578Z,12.14
2023-04-30T02:00:28.300Z,12.12
2023-04-30T02:02:56.091Z,12.10
2023-04-30T02:05:23.957Z,12.10
2023-04-30T02:07:53.288Z,12.07
2023-04-30T02:10:22.980Z,12.08
2023-04-30T02:12:50.794Z,12.07
2023-04-30T02:15:18.641Z,12.07
2023-04-30T02:17:47.909Z,12.05
2023-04-30T02:20:15.825Z,12.03
2023-04-30T02:22:43.903Z,12.03
2023-04-30T02:25:12.553Z,12.02
2023-04-30T02:27:40.696Z,12.02
2023-04-30T02:30:09.449Z,12.01
2023-04-30T02:32:37.178Z,12.00
2023-04-30T02:35:07.185Z,11.94
2023-04-30T02:37:34.892Z,11.98
2023-04-30T02:40:02.677Z,11.97
2023-04-30T02:42:30.352Z,11.96
2023-04-30T02:44:58.034Z,11.95
2023-04-30T02:47:25.736Z,11.93
2023-04-30T02:49:53.691Z,11.91
2023-04-30T02:52:22.828Z,11.91
2023-04-30T02:54:50.932Z,11.89
2023-04-30T02:57:18.789Z,11.87
2023-04-30T02:59:46.570Z,11.87
2023-04-30T03:02:14.332Z,11.85
2023-04-30T03:04:42.032Z,11.82
2023-04-30T03:07:09.793Z,11.82
2023-04-30T03:09:38.999Z,11.81
2023-04-30T03:12:06.864Z,11.78
2023-04-30T03:14:34.617Z,11.79
2023-04-30T03:17:02.301Z,11.78
2023-04-30T03:19:30.023Z,11.76
2023-04-30T03:21:57.744Z,11.77
2023-04-30T03:24:26.092Z,11.76
2023-04-30T03:26:55.131Z,11.73
2023-04-30T03:29:22.835Z,11.73
2023-04-30T03:31:51.216Z,11.70
2023-04-30T03:34:19.109Z,11.70
2023-04-30T03:36:46.847Z,11.68
2023-04-30T03:39:14.548Z,11.67
2023-04-30T03:41:42.291Z,11.67
2023-04-30T03:44:15.728Z,11.66
2023-04-30T03:46:44.190Z,11.65
2023-04-30T03:49:12.102Z,11.64
2023-04-30T03:51:41.880Z,11.62
2023-04-30T03:54:10.088Z,11.61
2023-04-30T03:56:38.466Z,11.61
2023-04-30T03:59:07.139Z,11.62
2023-04-30T04:01:36.261Z,11.59
2023-04-30T04:04:04.378Z,11.60
2023-04-30T04:08:59.845Z,11.59
2023-04-30T04:11:27.610Z,11.56
2023-04-30T04:13:55.749Z,11.56
2023-04-30T04:16:23.498Z,11.54
2023-04-30T04:18:52.693Z,11.53
2023-04-30T04:21:20.421Z,11.53
2023-04-30T04:23:48.140Z,11.50
2023-04-30T04:26:16.542Z,11.49
2023-04-30T04:28:44.253Z,11.47
2023-04-30T04:31:12.875Z,11.46
2023-04-30T04:33:40.649Z,11.45
2023-04-30T04:36:09.885Z,11.45
2023-04-30T04:38:37.575Z,11.43
2023-04-30T04:41:05.302Z,11.38
2023-04-30T04:43:32.967Z,11.41
2023-04-30T04:46:00.718Z,11.41
2023-04-30T04:48:28.461Z,11.41
2023-04-30T04:50:56.144Z,11.40
2023-04-30T04:53:25.183Z,11.39
2023-04-30T04:55:53.312Z,11.38
2023-04-30T04:58:21.061Z,11.37
2023-04-30T05:00:48.721Z,11.35
2023-04-30T05:03:16.688Z,11.34
2023-04-30T05:05:44.494Z,11.33
2023-04-30T05:08:12.186Z,11.33
2023-04-30T05:10:41.290Z,11.32
2023-04-30T05:13:09.074Z,11.31
2023-04-30T05:15:42.751Z,11.29
2023-04-30T05:18:10.670Z,11.29
2023-04-30T05:20:38.401Z,11.30
2023-04-30T05:23:06.163Z,11.29
2023-04-30T05:25:34.075Z,11.29
2023-04-30T05:28:03.402Z,11.28
2023-04-30T05:30:31.490Z,11.29
2023-04-30T05:32:59.399Z,11.29
2023-04-30T05:35:27.201Z,11.27
2023-04-30T05:37:54.880Z,11.28
2023-04-30T05:40:22.638Z,11.27
2023-04-30T05:42:50.406Z,11.28
2023-04-30T05:45:19.636Z,11.28
2023-04-30T05:47:47.356Z,11.26
2023-04-30T05:50:15.271Z,11.28
2023-04-30T05:52:42.958Z,11.29
2023-04-30T05:55:11.571Z,11.27
2023-04-30T05:57:39.311Z,11.28
2023-04-30T06:00:08.520Z,11.28
2023-04-30T06:02:37.729Z,11.29
2023-04-30T06:05:06.149Z,11.31
2023-04-30T06:07:33.879Z,11.19
2023-04-30T06:10:01.607Z,11.36
2023-04-30T06:12:29.374Z,11.40
2023-04-30T06:14:57.514Z,11.41
2023-04-30T06:17:25.258Z,11.46
2023-04-30T06:19:54.494Z,11.48
2023-04-30T06:22:22.434Z,11.52
2023-04-30T06:24:50.145Z,11.53
2023-04-30T06:27:17.909Z,11.54
2023-04-30T06:29:45.660Z,11.56
2023-04-30T06:32:13.348Z,11.58
2023-04-30T06:34:41.073Z,11.60
2023-04-30T06:37:10.132Z,11.60
2023-04-30T06:39:37.850Z,11.62
2023-04-30T06:42:05.912Z,11.63
2023-04-30T06:44:33.627Z,11.68
2023-04-30T06:47:01.343Z,11.69
2023-04-30T06:49:29.121Z,11.72
2023-04-30T06:51:58.527Z,11.73
2023-04-30T06:54:27.732Z,11.74
2023-04-30T06:56:55.610Z,11.78
2023-04-30T06:59:23.310Z,11.80
2023-04-30T07:01:51.045Z,11.82
2023-04-30T07:04:19.956Z,11.85
2023-04-30T07:06:47.740Z,11.84
2023-04-30T07:09:16.156Z,11.86
2023-04-30T07:11:45.366Z,11.88
2023-04-30T07:14:13.142Z,11.90
2023-04-30T07:16:40.824Z,11.90
2023-04-30T07:19:08.537Z,11.92
2023-04-30T07:21:36.261Z,11.92
2023-04-30T07:24:04.019Z,11.97
2023-04-30T07:26:31.775Z,11.92
2023-04-30T07:29:00.871Z,12.04
2023-04-30T07:31:28.722Z,12.07
2023-04-30T07:33:56.550Z,12.08
2023-04-30T07:36:24.589Z,12.10
2023-04-30T07:38:52.300Z,12.11
2023-04-30T07:41:20.418Z,12.11
2023-04-30T07:43:48.220Z,12.10
2023-04-30T07:46:17.406Z,12.10
2023-04-30T07:48:45.365Z,12.08
2023-04-30T07:51:13.139Z,12.10
2023-04-30T07:53:40.882Z,12.12
2023-04-30T07:56:09.042Z,12.12
2023-04-30T07:58:36.770Z,12.12
2023-04-30T08:01:04.890Z,12.14
2023-04-30T08:03:34.095Z,12.15
2023-04-30T08:06:02.130Z,12.16
2023-04-30T08:08:29.949Z,12.18
2023-04-30T08:10:57.622Z,12.20
2023-04-30T08:13:25.387Z,12.21
2023-04-30T08:15:53.061Z,12.23
2023-04-30T08:18:20.968Z,12.23
2023-04-30T08:20:50.090Z,12.26
2023-04-30T08:23:17.899Z,12.28
2023-04-30T08:25:45.595Z,12.28
2023-04-30T08:28:13.520Z,12.28
2023-04-30T08:30:41.177Z,12.33
2023-04-30T08:33:09.255Z,12.35
2023-04-30T08:35:36.993Z,12.37
2023-04-30T08:38:06.098Z,12.38
2023-04-30T08:40:50.362Z,12.41
2023-04-30T08:43:19.893Z,12.45
2023-04-30T08:45:47.684Z,12.47
2023-04-30T08:48:16.920Z,12.47
2023-04-30T08:50:45.723Z,12.49
2023-04-30T08:53:17.411Z,12.54
2023-04-30T08:55:45.334Z,12.57
2023-04-30T08:58:13.054Z,12.60
2023-04-30T09:00:41.574Z,12.61
2023-04-30T09:03:09.595Z,12.64
2023-04-30T09:05:38.417Z,12.60
2023-04-30T09:08:08.516Z,12.70
2023-04-30T09:10:37.658Z,12.73
2023-04-30T09:13:06.510Z,12.76
2023-04-30T09:15:36.924Z,12.80
2023-04-30T09:18:13.304Z,12.86
2023-04-30T09:20:56.301Z,12.90
2023-04-30T09:23:24.605Z,12.93
2023-04-30T09:25:53.690Z,12.94
2023-04-30T09:28:24.509Z,12.93
2023-04-30T09:30:54.204Z,12.94
2023-04-30T09:33:21.918Z,12.97
2023-04-30T09:35:49.961Z,13.00
2023-04-30T09:38:28.392Z,13.02
2023-04-30T09:41:00.029Z,13.04
2023-04-30T09:43:27.896Z,13.07
2023-04-30T09:45:55.573Z,13.07
2023-04-30T09:48:24.345Z,13.11
2023-04-30T09:50:52.938Z,13.16
2023-04-30T09:53:21.655Z,13.20
2023-04-30T09:55:51.589Z,13.25
2023-04-30T09:58:21.247Z,13.24
2023-04-30T10:00:51.559Z,13.30
2023-04-30T10:03:21.388Z,13.32
2023-04-30T10:05:49.944Z,13.32
2023-04-30T10:08:25.953Z,13.35
2023-04-30T10:10:59.940Z,13.40
2023-04-30T10:13:32.340Z,13.40
2023-04-30T10:16:05.465Z,13.48
2023-04-30T10:18:36.144Z,13.54
2023-04-30T10:21:10.283Z,13.59
2023-04-30T10:23:39.583Z,13.63
2023-04-30T10:26:08.174Z,13.67
2023-04-30T10:28:39.031Z,13.74
2023-04-30T10:31:08.443Z,13.77
2023-04-30T10:33:49.595Z,13.78
2023-04-30T10:36:27.236Z,13.84
2023-04-30T10:38:55.567Z,13.92
2023-04-30T10:41:23.445Z,13.91
2023-04-30T10:43:52.639Z,14.04
2023-04-30T10:46:24.284Z,14.05
2023-04-30T10:48:54.903Z,14.06
2023-04-30T10:51:23.163Z,14.14
2023-04-30T10:53:53.000Z,14.22
2023-04-30T10:56:33.908Z,14.32
2023-04-30T10:59:03.533Z,14.42
2023-04-30T11:01:32.621Z,14.48
2023-04-30T11:04:08.256Z,14.49
2023-04-30T11:06:51.186Z,14.51
2023-04-30T11:09:19.177Z,14.52
2023-04-30T11:11:47.548Z,14.61
2023-04-30T11:14:22.988Z,14.65
2023-04-30T11:16:51.935Z,14.77
2023-04-30T11:19:21.519Z,14.82
2023-04-30T11:22:17.998Z,14.93
2023-04-30T11:25:01.877Z,14.97
2023-04-30T11:27:30.939Z,14.95
2023-04-30T11:30:00.378Z,14.98
2023-04-30T11:32:34.175Z,15.03
2023-04-30T11:35:03.583Z,15.12
2023-04-30T11:37:33.704Z,15.10
2023-04-30T11:40:03.842Z,15.06
2023-04-30T11:42:34.665Z,15.14
2023-04-30T11:45:11.454Z,15.12
2023-04-30T11:47:40.181Z,15.13
2023-04-30T11:50:09.329Z,15.18
2023-04-30T11:52:37.447Z,15.26
2023-04-30T11:55:13.624Z,15.34
2023-04-30T11:57:42.769Z,15.42
2023-04-30T12:00:15.306Z,15.50
2023-04-30T12:02:45.745Z,15.54
2023-04-30T12:05:16.012Z,15.55
2023-04-30T12:07:51.546Z,15.53
2023-04-30T12:10:20.796Z,15.55
2023-04-30T12:12:50.732Z,15.55
2023-04-30T12:15:26.190Z,15.54
2023-04-30T12:17:55.113Z,15.60
2023-04-30T12:20:24.518Z,15.71
2023-04-30T12:22:52.833Z,15.80
2023-04-30T12:25:22.640Z,15.86
2023-04-30T12:27:51.522Z,15.88
2023-04-30T12:30:23.233Z,15.92
2023-04-30T12:32:52.503Z,15.92
2023-04-30T12:35:22.108Z,15.87
2023-04-30T12:37:52.353Z,15.87
2023-04-30T12:40:22.262Z,15.98
2023-04-30T12:42:50.013Z,16.09
2023-04-30T12:45:47.448Z,16.16
2023-04-30T12:48:16.568Z,16.15
2023-04-30T12:50:48.936Z,16.15
2023-04-30T12:53:16.804Z,16.13
2023-04-30T12:55:44.545Z,16.14
2023-04-30T12:58:15.103Z,16.12
2023-04-30T13:00:49.229Z,16.02
2023-04-30T13:03:19.316Z,16.06
2023-04-30T13:05:49.373Z,16.24
2023-04-30T13:08:18.039Z,16.42
2023-04-30T13:10:46.560Z,16.51
2023-04-30T13:13:15.044Z,16.53
2023-04-30T13:15:44.068Z,16.53
2023-04-30T13:18:15.745Z,16.52
2023-04-30T13:20:44.493Z,16.55
2023-04-30T13:23:12.941Z,16.51
2023-04-30T13:25:41.807Z,16.47
2023-04-30T13:28:09.571Z,16.50
2023-04-30T13:30:37.594Z,16.54
2023-04-30T13:33:05.409Z,16.56
2023-04-30T13:35:34.574Z,16.57
2023-04-30T13:38:02.440Z,16.61
2023-04-30T13:40:30.181Z,16.65
2023-04-30T13:42:57.915Z,16.63
2023-04-30T13:45:25.635Z,16.61
2023-04-30T13:47:53.429Z,16.64
2023-04-30T13:50:21.211Z,16.71
2023-04-30T13:52:50.284Z,16.70
2023-04-30T13:55:18.058Z,16.65
2023-04-30T13:57:45.815Z,16.65
2023-04-30T14:00:15.991Z,16.69
2023-04-30T14:02:43.702Z,16.78
2023-04-30T14:05:11.560Z,16.84
2023-04-30T14:07:39.358Z,16.85
2023-04-30T14:10:10.355Z,16.83
2023-04-30T14:12:38.507Z,17.01
2023-04-30T14:15:07.150Z,17.16
2023-04-30T14:17:35.426Z,17.07
2023-04-30T14:20:04.001Z,17.06
2023-04-30T14:22:34.500Z,17.14
2023-04-30T14:25:02.220Z,17.09
2023-04-30T14:27:31.308Z,17.17
2023-04-30T14:29:59.147Z,17.14
2023-04-30T14:32:28.017Z,17.20
2023-04-30T14:34:55.943Z,17.25
2023-04-30T14:37:23.820Z,17.23
2023-04-30T14:39:51.721Z,17.19
2023-04-30T14:42:19.418Z,17.17
2023-04-30T14:44:48.432Z,17.12
2023-04-30T14:47:16.163Z,17.11
2023-04-30T14:49:43.838Z,17.07
2023-04-30T14:52:11.507Z,17.12
2023-04-30T14:54:40.102Z,17.10
2023-04-30T14:57:08.278Z,17.15
2023-04-30T14:59:36.144Z,17.14
2023-04-30T15:02:05.827Z,17.08
2023-04-30T15:04:33.648Z,17.11
2023-04-30T15:07:02.618Z,17.15
2023-04-30T15:09:30.355Z,17.21
2023-04-30T15:11:58.138Z,17.19
2023-04-30T15:14:25.915Z,17.35
2023-04-30T15:16:53.666Z,17.25
2023-04-30T15:19:22.827Z,17.19
2023-04-30T15:21:50.566Z,17.15
2023-04-30T15:24:18.987Z,17.14
2023-04-30T15:26:46.812Z,17.11
2023-04-30T15:29:14.494Z,17.09
2023-04-30T15:31:42.304Z,17.08
2023-04-30T15:34:10.022Z,17.15
2023-04-30T15:36:39.919Z,17.13
2023-04-30T15:39:07.766Z,17.15
2023-04-30T15:41:35.460Z,17.14
2023-04-30T15:44:03.191Z,17.11
2023-04-30T15:46:31.264Z,17.10
2023-04-30T15:48:59.017Z,17.09
2023-04-30T15:51:29.134Z,17.05
2023-04-30T15:53:58.205Z,17.03
2023-04-30T15:56:26.689Z,17.03
2023-04-30T15:58:54.667Z,17.02
2023-04-30T16:01:23.390Z,17.07
2023-04-30T16:03:51.397Z,17.08
2023-04-30T16:06:19.559Z,17.09
2023-04-30T16:08:49.849Z,17.11
2023-04-30T16:11:19.757Z,17.20
2023-04-30T16:13:48.126Z,17.30
2023-04-30T16:16:16.709Z,17.40
2023-04-30T16:18:44.644Z,17.56
2023-04-30T16:21:12.876Z,17.71
2023-04-30T16:23:40.594Z,17.89
2023-04-30T16:26:08.368Z,18.08
2023-04-30T16:28:37.388Z,18.17
2023-04-30T16:31:05.394Z,18.12
2023-04-30T16:33:33.101Z,17.96
2023-04-30T16:36:00.832Z,17.80
2023-04-30T16:38:28.556Z,17.66
2023-04-30T16:40:56.643Z,17.56
2023-04-30T16:43:24.422Z,17.51
2023-04-30T16:45:53.543Z,17.45
2023-04-30T16:48:21.328Z,17.42
2023-04-30T16:50:49.087Z,17.39
2023-04-30T16:53:16.828Z,17.37
2023-04-30T16:55:44.841Z,17.32
2023-04-30T16:58:12.592Z,17.30
2023-04-30T17:00:40.380Z,17.26
2023-04-30T17:03:10.186Z,17.23
2023-04-30T17:05:38.188Z,17.22
2023-04-30T17:08:07.257Z,17.21
2023-04-30T17:10:35.009Z,17.21
2023-04-30T17:13:05.479Z,17.20
2023-04-30T17:15:33.271Z,17.19
2023-04-30T17:18:01.010Z,17.18
2023-04-30T17:20:30.164Z,17.17
2023-04-30T17:22:58.210Z,17.17
2023-04-30T17:25:26.488Z,17.15
2023-04-30T17:27:54.351Z,17.14
2023-04-30T17:30:22.081Z,17.14
2023-04-30T17:32:49.794Z,17.12
2023-04-30T17:35:17.635Z,17.13
2023-04-30T17:37:47.010Z,17.13
2023-04-30T17:40:14.848Z,17.12
2023-04-30T17:42:42.509Z,17.13
2023-04-30T17:45:11.026Z,17.12
2023-04-30T17:47:39.046Z,17.12
2023-04-30T17:50:10.188Z,17.09
2023-04-30T17:52:38.789Z,17.09
2023-04-30T17:55:09.547Z,17.04
2023-04-30T17:57:37.737Z,17.08
2023-04-30T18:00:07.109Z,17.05
2023-04-30T18:02:35.001Z,17.05
2023-04-30T18:05:02.853Z,17.02
2023-04-30T18:07:30.520Z,17.01
2023-04-30T18:09:58.686Z,16.99
2023-04-30T18:12:28.206Z,16.98
2023-04-30T18:14:55.960Z,16.95
2023-04-30T18:17:23.938Z,16.93
2023-04-30T18:19:51.679Z,16.91
2023-04-30T18:22:19.882Z,16.88
2023-04-30T18:24:47.859Z,16.91
2023-04-30T18:27:15.576Z,16.99
2023-04-30T18:29:44.664Z,17.10
2023-04-30T18:32:13.450Z,17.26
2023-04-30T18:34:41.235Z,17.42
2023-04-30T18:37:09.345Z,17.61
2023-04-30T18:39:37.078Z,17.70
2023-04-30T18:42:04.921Z,17.91
2023-04-30T18:44:32.724Z,18.06
2023-04-30T18:47:01.768Z,18.05
2023-04-30T18:49:29.566Z,17.98
2023-04-30T18:51:57.250Z,17.82
2023-04-30T18:54:25.211Z,17.66
2023-04-30T18:56:53.377Z,17.51
2023-04-30T18:59:22.096Z,17.38
2023-04-30T19:01:50.523Z,17.28
2023-04-30T19:04:19.769Z,17.20
2023-04-30T19:06:49.821Z,17.11
2023-04-30T19:09:17.860Z,17.05
2023-04-30T19:11:45.572Z,16.95
2023-04-30T19:14:13.313Z,16.96
2023-04-30T19:16:41.018Z,16.92
2023-04-30T19:19:08.803Z,16.88
2023-04-30T19:21:37.885Z,16.85
2023-04-30T19:24:05.829Z,16.82
2023-04-30T19:26:34.259Z,16.78
2023-04-30T19:29:03.389Z,16.77
2023-04-30T19:31:31.323Z,16.75
2023-04-30T19:34:00.613Z,16.71
2023-04-30T19:36:28.369Z,16.69
2023-04-30T19:38:57.649Z,16.67
2023-04-30T19:41:25.880Z,16.65
2023-04-30T19:43:53.776Z,16.63
2023-04-30T19:46:21.888Z,16.60
2023-04-30T19:48:50.314Z,16.59
2023-04-30T19:51:18.668Z,16.56
2023-04-30T19:53:46.623Z,16.54
2023-04-30T19:56:15.654Z,16.52
2023-04-30T19:58:43.863Z,16.51
2023-04-30T20:01:12.444Z,16.49
2023-04-30T20:03:42.087Z,16.46
2023-04-30T20:06:10.674Z,16.44
2023-04-30T20:08:38.707Z,16.40
2023-04-30T20:11:06.448Z,16.38
2023-04-30T20:13:35.601Z,16.39
2023-04-30T20:16:04.123Z,16.37
2023-04-30T20:18:32.322Z,16.35
2023-04-30T20:21:00.101Z,16.33
2023-04-30T20:23:27.799Z,16.31
2023-04-30T20:25:55.522Z,16.30
2023-04-30T20:28:23.287Z,16.28
2023-04-30T20:30:52.370Z,16.26
2023-04-30T20:33:20.175Z,16.24
2023-04-30T20:35:48.517Z,16.20
2023-04-30T20:38:19.568Z,16.22
2023-04-30T20:40:47.616Z,16.20
2023-04-30T20:43:15.517Z,16.18
2023-04-30T20:45:45.073Z,16.16
2023-04-30T20:48:14.586Z,16.17
2023-04-30T20:50:42.403Z,16.15
2023-04-30T20:53:11.681Z,16.14
2023-04-30T20:55:39.441Z,16.14
2023-04-30T20:58:07.967Z,16.11
2023-04-30T21:00:36.159Z,16.10
2023-04-30T21:03:04.012Z,16.08
2023-04-30T21:05:33.117Z,16.08
2023-04-30T21:08:01.822Z,15.98
2023-04-30T21:10:35.762Z,16.05
2023-04-30T21:13:05.363Z,16.03
2023-04-30T21:15:34.083Z,16.02
2023-04-30T21:18:01.929Z,16.01
2023-04-30T21:20:31.334Z,16.00
2023-04-30T21:23:00.692Z,15.98
2023-04-30T21:25:28.500Z,15.98
2023-04-30T21:27:56.313Z,15.95
2023-04-30T21:30:26.320Z,15.94
2023-04-30T21:32:58.067Z,15.93
2023-04-30T21:35:27.557Z,15.91
2023-04-30T21:37:55.459Z,15.90
2023-04-30T21:40:24.569Z,15.88
2023-04-30T21:42:52.631Z,15.89
2023-04-30T21:45:20.739Z,15.84
2023-04-30T21:47:48.732Z,15.84
2023-04-30T21:50:16.974Z,15.82
2023-04-30T21:52:44.987Z,15.82
2023-04-30T21:55:12.750Z,15.78
2023-04-30T21:57:41.847Z,15.78
2023-04-30T22:00:14.269Z,15.77
2023-04-30T22:02:42.280Z,15.75
2023-04-30T22:05:10.489Z,15.73
2023-04-30T22:07:38.231Z,15.73
2023-04-30T22:10:07.530Z,15.71
2023-04-30T22:12:35.859Z,15.71
2023-04-30T22:15:05.770Z,15.69
2023-04-30T22:17:33.650Z,15.68
2023-04-30T22:20:01.571Z,15.66
2023-04-30T22:22:29.273Z,15.66
2023-04-30T22:24:57.027Z,15.65
2023-04-30T22:27:24.949Z,15.65
2023-04-30T22:29:52.744Z,15.63
2023-04-30T22:32:22.788Z,15.62
2023-04-30T22:34:50.772Z,15.62
2023-04-30T22:37:18.442Z,15.61
2023-04-30T22:39:46.879Z,15.61
2023-04-30T22:42:15.565Z,15.61
2023-04-30T22:44:45.579Z,15.59
2023-04-30T22:47:13.583Z,15.59
2023-04-30T22:49:42.987Z,15.57
2023-04-30T22:52:10.714Z,15.57
2023-04-30T22:54:38.521Z,15.56
2023-04-30T22:57:06.566Z,15.55
2023-04-30T22:59:34.345Z,15.55
2023-04-30T23:02:02.029Z,15.53
2023-04-30T23:04:32.334Z,15.52
2023-04-30T23:07:01.854Z,15.51
2023-04-30T23:09:29.640Z,15.50
2023-04-30T23:11:57.328Z,15.49
2023-04-30T23:14:25.863Z,15.48
2023-04-30T23:16:53.648Z,15.47
2023-04-30T23:19:21.568Z,15.44
2023-04-30T23:21:49.336Z,15.43
2023-04-30T23:24:18.399Z,15.43
2023-04-30T23:26:47.218Z,15.41
2023-04-30T23:29:15.546Z,15.39
2023-04-30T23:31:43.278Z,15.38
2023-04-30T23:34:11.139Z,15.37
2023-04-30T23:36:38.837Z,15.37
2023-04-30T23:39:06.522Z,15.35
2023-04-30T23:41:35.772Z,15.35
2023-04-30T23:44:03.842Z,15.33
2023-04-30T23:46:31.579Z,15.33
2023-04-30T23:48:59.568Z,15.32
2023-04-30T23:51:27.284Z,15.24
2023-04-30T23:53:54.988Z,15.28
2023-04-30T23:56:22.820Z,15.27
2023-04-30T23:58:51.885Z,15.26
